Time;durP1;ratioP1;P1;durP2;ratioP2;P2;SDS_P1;SDS_P2;PMS_P1;PMS_P2;Temp;Humidity;BMP_temperature;BMP_pressure;BME280_temperature;BME280_humidity;BME280_pressure;Samples;Min_cycle;Max_cycle;Signal;HPM_P1;HPM_P2
2022/08/13 00:02:16;;;;;;;1.02;1.00;;;13.70;99.90;;;;;;5115340;28;20028;-77
2022/08/13 00:05:01;;;;;;;0.25;0.22;;;13.70;99.90;;;;;;5097017;28;20048;-77
2022/08/13 00:07:28;;;;;;;0.28;0.28;;;13.60;99.90;;;;;;5115224;28;20019;-76
2022/08/13 00:09:55;;;;;;;0.40;0.40;;;13.60;99.90;;;;;;5114937;28;20472;-76
2022/08/13 00:15:20;;;;;;;6.82;0.57;;;13.70;99.90;;;;;;5115485;28;20399;-76
2022/08/13 00:17:51;;;;;;;1.08;0.47;;;13.70;99.90;;;;;;5096471;28;20046;-77
2022/08/13 00:20:20;;;;;;;0.38;0.38;;;13.70;99.90;;;;;;5115025;28;20019;-76
2022/08/13 00:22:48;;;;;;;0.40;0.40;;;13.70;99.90;;;;;;5114711;28;20031;-77
2022/08/13 00:25:14;;;;;;;0.50;0.50;;;13.80;99.90;;;;;;5114865;28;20019;-77
2022/08/13 00:27:44;;;;;;;0.55;0.32;;;13.80;99.90;;;;;;5114802;28;20028;-76
2022/08/13 00:30:14;;;;;;;1.20;0.77;;;13.70;99.90;;;;;;5096301;28;20031;-77
2022/08/13 00:32:40;;;;;;;1.33;0.35;;;13.60;99.90;;;;;;5114674;28;20058;-76
2022/08/13 00:35:06;;;;;;;1.23;1.13;;;13.60;99.90;;;;;;5096285;28;20460;-76
2022/08/13 00:37:32;;;;;;;0.30;0.30;;;13.60;99.90;;;;;;5114636;28;20468;-76
2022/08/13 00:39:58;;;;;;;0.30;0.30;;;13.50;99.90;;;;;;5114522;28;20031;-76
2022/08/13 00:42:27;;;;;;;1.10;1.00;;;13.60;99.90;;;;;;5114481;28;20020;-76
2022/08/13 00:44:53;;;;;;;0.52;0.47;;;13.50;99.90;;;;;;5114462;28;20479;-76
2022/08/13 00:50:05;;;;;;;0.45;0.45;;;13.40;99.90;;;;;;5114307;28;20038;-77
2022/08/13 00:52:38;;;;;;;0.30;0.30;;;13.40;99.90;;;;;;5114031;28;20408;-76
2022/08/13 00:55:08;;;;;;;0.30;0.30;;;13.30;99.90;;;;;;5095778;28;20051;-76
2022/08/13 00:57:35;;;;;;;0.40;0.30;;;13.30;99.90;;;;;;5114071;28;20027;-77
2022/08/13 01:00:11;;;;;;;0.85;0.47;;;13.20;99.90;;;;;;5114129;28;20062;-77
2022/08/13 01:02:39;;;;;;;1.75;0.50;;;13.20;99.90;;;;;;5114122;28;20456;-77
2022/08/13 01:05:07;;;;;;;0.55;0.55;;;13.10;99.90;;;;;;5114275;28;20049;-76
2022/08/13 01:07:37;;;;;;;0.87;0.63;;;13.10;99.90;;;;;;5096021;28;20020;-76
2022/08/13 01:10:04;;;;;;;0.95;0.95;;;13.10;99.90;;;;;;5114037;28;20327;-77
2022/08/13 01:12:33;;;;;;;0.80;0.80;;;13.00;99.90;;;;;;5114135;28;20030;-77
2022/08/13 01:15:00;;;;;;;0.13;0.10;;;13.00;99.90;;;;;;5113983;28;20059;-77
2022/08/13 01:17:27;;;;;;;0.20;0.20;;;13.10;99.90;;;;;;5095683;28;20032;-76
2022/08/13 01:19:54;;;;;;;0.40;0.40;;;13.10;99.90;;;;;;5113900;28;20088;-77
2022/08/13 01:22:24;;;;;;;0.30;0.30;;;13.00;99.90;;;;;;5095682;28;20076;-77
2022/08/13 01:24:52;;;;;;;0.75;0.75;;;13.10;99.90;;;;;;5113821;28;20464;-77
2022/08/13 01:27:22;;;;;;;0.75;0.75;;;13.10;99.90;;;;;;5113898;28;20019;-77
2022/08/13 01:29:48;;;;;;;;;;;13.00;99.90;;;;;;5096675;28;20089;-77
2022/08/13 01:32:16;;;;;;;0.40;0.40;;;13.00;99.90;;;;;;5118083;28;20359;-77
2022/08/13 01:34:47;;;;;;;0.32;0.30;;;12.90;99.90;;;;;;5118064;28;20027;-76
2022/08/13 01:37:15;;;;;;;0.88;0.52;;;12.80;99.90;;;;;;5099558;28;20023;-76
2022/08/13 01:39:41;;;;;;;0.15;0.15;;;;;;;;;;5118056;28;20084;-76
2022/08/13 01:42:13;;;;;;;0.45;0.45;;;12.80;99.90;;;;;;5117933;28;20026;-77
2022/08/13 01:44:40;;;;;;;0.40;0.40;;;12.70;99.90;;;;;;5099875;28;20030;-77
2022/08/13 01:52:36;;;;;;;0.52;0.52;;;12.70;99.90;;;;;;5117931;28;20135;-77
2022/08/13 01:55:04;;;;;;;0.60;0.60;;;12.70;99.90;;;;;;5117660;28;20020;-76
2022/08/13 01:57:33;;;;;;;0.30;0.30;;;12.70;99.90;;;;;;5117570;28;20352;-77
2022/08/13 02:00:00;;;;;;;0.93;0.90;;;12.60;99.90;;;;;;5117783;28;20483;-77
2022/08/13 02:02:30;;;;;;;0.80;0.45;;;12.50;99.90;;;;;;5117464;28;20032;-76
2022/08/13 02:04:56;;;;;;;0.40;0.40;;;12.50;99.90;;;;;;5117549;28;20028;-77
2022/08/13 02:07:22;;;;;;;0.63;0.63;;;12.50;99.90;;;;;;5099287;28;20533;-76
2022/08/13 02:09:48;;;;;;;0.90;0.50;;;12.60;99.90;;;;;;5117368;28;20050;-77
2022/08/13 02:12:15;;;;;;;0.32;0.32;;;12.50;99.90;;;;;;5099094;28;20471;-77
2022/08/13 02:14:45;;;;;;;0.73;0.60;;;12.50;99.90;;;;;;5117240;28;20023;-77
2022/08/13 02:17:27;;;;;;;0.35;0.35;;;12.40;99.90;;;;;;5117373;28;20072;-77
2022/08/13 02:19:55;;;;;;;2.08;0.50;;;12.30;99.90;;;;;;5098899;28;20031;-77
2022/08/13 02:22:22;;;;;;;0.63;0.63;;;12.40;99.90;;;;;;5098973;28;20027;-77
2022/08/13 02:24:52;;;;;;;0.73;0.73;;;12.40;99.90;;;;;;5117215;28;20026;-76
2022/08/13 02:27:20;;;;;;;2.53;0.95;;;12.40;99.90;;;;;;5117169;28;20024;-77
2022/08/13 02:29:49;;;;;;;1.08;1.08;;;12.30;99.90;;;;;;5116964;28;20024;-76
2022/08/13 02:32:16;;;;;;;0.30;0.30;;;12.30;99.90;;;;;;5116874;28;20069;-76
2022/08/13 02:34:47;;;;;;;0.20;0.20;;;12.20;99.90;;;;;;5116984;28;20019;-77
2022/08/13 02:37:14;;;;;;;0.50;0.30;;;12.30;99.90;;;;;;5116927;28;20080;-76
2022/08/13 02:39:40;;;;;;;0.40;0.40;;;12.30;99.90;;;;;;5116944;28;20455;-77
2022/08/13 02:42:07;;;;;;;0.47;0.30;;;12.30;99.90;;;;;;5115620;28;20068;-77
2022/08/13 02:44:32;;;;;;;0.45;0.45;;;12.30;99.90;;;;;;5117005;28;20023;-77
2022/08/13 02:46:58;;;;;;;0.32;0.32;;;12.20;99.90;;;;;;5098481;28;20436;-76
2022/08/13 02:49:24;;;;;;;0.40;0.35;;;12.20;99.90;;;;;;5116474;28;20372;-76
2022/08/13 02:51:49;;;;;;;0.30;0.30;;;12.20;99.90;;;;;;5116514;28;20472;-76
2022/08/13 02:54:17;;;;;;;0.45;0.40;;;12.20;99.90;;;;;;5116416;28;20504;-76
2022/08/13 02:56:43;;;;;;;0.60;0.60;;;12.20;99.90;;;;;;5116433;28;20128;-76
2022/08/13 02:59:10;;;;;;;0.85;0.85;;;12.30;99.90;;;;;;5116524;28;20099;-76
2022/08/13 03:01:40;;;;;;;0.85;0.65;;;12.20;99.90;;;;;;5116525;28;20159;-76
2022/08/13 03:04:09;;;;;;;1.33;0.80;;;11.20;99.90;;;;;;5098088;28;20015;-77
2022/08/13 03:06:36;;;;;;;0.40;0.40;;;12.00;99.90;;;;;;5116267;28;20042;-76
2022/08/13 03:09:04;;;;;;;0.32;0.32;;;12.00;99.90;;;;;;5116150;28;20270;-76
2022/08/13 03:11:32;;;;;;;0.75;0.75;;;11.90;99.90;;;;;;5116018;28;20031;-77
2022/08/13 03:14:09;;;;;;;0.60;0.60;;;11.90;99.90;;;;;;5116385;28;20051;-76
2022/08/13 03:16:39;;;;;;;3.22;0.60;;;11.90;99.90;;;;;;5097894;28;20031;-76
2022/08/13 03:19:05;;;;;;;0.45;0.45;;;12.00;99.90;;;;;;5116072;28;20020;-76
2022/08/13 03:21:35;;;;;;;0.70;0.70;;;12.00;99.90;;;;;;5116089;28;20027;-76
2022/08/13 03:24:03;;;;;;;0.50;0.50;;;11.90;99.90;;;;;;5115925;28;20047;-76
2022/08/13 03:26:31;;;;;;;0.30;0.30;;;11.80;99.90;;;;;;5115947;28;20024;-76
2022/08/13 03:28:58;;;;;;;0.20;0.20;;;11.80;99.90;;;;;;5115845;28;20042;-76
2022/08/13 03:31:24;;;;;;;0.22;0.22;;;11.80;99.90;;;;;;5115814;28;20062;-76
2022/08/13 03:33:52;;;;;;;0.38;0.38;;;11.70;99.90;;;;;;5115781;28;20379;-77
2022/08/13 03:36:20;;;;;;;0.40;0.40;;;11.80;99.90;;;;;;5097437;28;20027;-77
2022/08/13 03:38:46;;;;;;;0.43;0.43;;;11.70;99.90;;;;;;5115838;28;20387;-76
2022/08/13 03:41:14;;;;;;;0.32;0.32;;;11.60;99.90;;;;;;5097496;28;20023;-76
2022/08/13 03:43:43;;;;;;;0.73;0.40;;;11.50;99.90;;;;;;5097248;28;20112;-76
2022/08/13 03:46:19;;;;;;;0.30;0.30;;;11.50;99.90;;;;;;5115569;28;20399;-77
2022/08/13 03:48:47;;;;;;;0.45;0.45;;;11.40;99.90;;;;;;5097229;28;20737;-77
2022/08/13 03:51:14;;;;;;;0.57;0.50;;;11.40;99.90;;;;;;5115446;28;20514;-76
2022/08/13 03:53:41;;;;;;;0.30;0.30;;;11.30;99.90;;;;;;5114893;28;20050;-77
2022/08/13 03:56:08;;;;;;;0.30;0.30;;;11.20;99.90;;;;;;5115444;28;20542;-76
2022/08/13 03:58:34;;;;;;;0.30;0.30;;;11.10;99.90;;;;;;5097135;28;20038;-76
2022/08/13 04:01:02;;;;;;;1.05;1.00;;;11.10;99.90;;;;;;5115312;28;20388;-77
2022/08/13 04:03:30;;;;;;;1.35;0.40;;;11.10;99.90;;;;;;5115268;28;20103;-77
2022/08/13 04:05:59;;;;;;;0.20;0.20;;;11.10;99.90;;;;;;5115140;28;20106;-77
2022/08/13 04:08:26;;;;;;;0.28;0.28;;;11.20;99.90;;;;;;5115125;28;20269;-77
2022/08/13 04:10:52;;;;;;;0.63;0.60;;;11.20;99.90;;;;;;5096739;28;20060;-76
2022/08/13 04:13:19;;;;;;;0.43;0.43;;;11.10;99.90;;;;;;5115246;28;20019;-76
2022/08/13 04:15:46;;;;;;;1.77;0.32;;;11.00;99.90;;;;;;5115019;28;20023;-76
2022/08/13 04:18:15;;;;;;;0.32;0.32;;;11.10;99.90;;;;;;5096589;28;20035;-75
2022/08/13 04:20:49;;;;;;;0.60;0.60;;;11.20;99.90;;;;;;5114902;28;20024;-77
2022/08/13 04:23:16;;;;;;;0.38;0.38;;;11.10;99.90;;;;;;5114765;28;20019;-76
2022/08/13 04:25:47;;;;;;;1.77;0.55;;;11.10;99.90;;;;;;5096517;28;20152;-76
2022/08/13 04:28:15;;;;;;;0.57;0.50;;;11.00;99.90;;;;;;5114801;28;20015;-77
2022/08/13 04:30:42;;;;;;;0.82;0.82;;;11.00;99.90;;;;;;5114674;28;20112;-76
2022/08/13 04:33:13;;;;;;;0.60;0.40;;;11.00;99.90;;;;;;5096510;28;20043;-77
2022/08/13 04:35:39;;;;;;;0.30;0.30;;;11.00;99.90;;;;;;5096431;28;20084;-76
2022/08/13 04:38:08;;;;;;;0.30;0.30;;;11.00;99.90;;;;;;5114562;28;20410;-77
2022/08/13 04:40:39;;;;;;;0.30;0.30;;;11.00;99.90;;;;;;5114432;28;20472;-77
2022/08/13 04:43:06;;;;;;;0.57;0.57;;;10.90;99.90;;;;;;5114609;28;20460;-77
2022/08/13 04:45:34;;;;;;;0.55;0.55;;;10.90;99.90;;;;;;5096577;28;20024;-77
2022/08/13 04:48:09;;;;;;;0.82;0.82;;;10.90;99.90;;;;;;5114533;28;20023;-76
2022/08/13 04:50:36;;;;;;;1.40;0.63;;;10.90;99.90;;;;;;5096147;28;20045;-77
2022/08/13 04:53:09;;;;;;;0.57;0.57;;;10.90;99.90;;;;;;5114212;28;20035;-76
2022/08/13 04:55:37;;;;;;;3.22;0.77;;;11.00;99.90;;;;;;5114211;28;20015;-76
2022/08/13 04:58:04;;;;;;;0.40;0.40;;;11.20;99.90;;;;;;5114211;28;20024;-77
2022/08/13 05:00:32;;;;;;;0.30;0.30;;;11.20;99.90;;;;;;5114231;28;20030;-76
2022/08/13 05:03:08;;;;;;;1.98;1.10;;;11.30;99.90;;;;;;5114524;28;20031;-77
2022/08/13 05:05:35;;;;;;;0.50;0.50;;;11.40;99.90;;;;;;5113442;28;20115;-76
2022/08/13 05:08:01;;;;;;;0.25;0.25;;;11.50;99.90;;;;;;5095832;28;20106;-76
2022/08/13 05:10:30;;;;;;;0.40;0.38;;;11.60;99.90;;;;;;5114049;28;20032;-76
2022/08/13 05:13:03;;;;;;;0.47;0.40;;;11.70;99.90;;;;;;5114029;28;20016;-77
2022/08/13 05:15:29;;;;;;;2.05;0.70;;;11.80;99.90;;;;;;5095598;28;20034;-76
2022/08/13 05:17:55;;;;;;;2.58;1.15;;;12.00;99.90;;;;;;5113942;28;20024;-76
2022/08/13 05:20:21;;;;;;;0.65;0.65;;;12.00;99.90;;;;;;5113978;28;20024;-76
2022/08/13 05:22:47;;;;;;;0.77;0.40;;;12.10;99.90;;;;;;5113923;28;20024;-77
2022/08/13 05:25:15;;;;;;;0.50;0.50;;;12.20;99.90;;;;;;5095659;28;20114;-77
2022/08/13 05:27:43;;;;;;;0.38;0.38;;;12.30;99.90;;;;;;5095822;28;20062;-76
2022/08/13 05:30:11;;;;;;;0.30;0.30;;;12.40;99.90;;;;;;5113798;28;20387;-76
2022/08/13 05:32:38;;;;;;;0.57;0.57;;;12.60;99.90;;;;;;5113689;28;20098;-77
2022/08/13 05:35:08;;;;;;;0.60;0.60;;;12.70;99.90;;;;;;5113812;28;20077;-78
2022/08/13 05:37:33;;;;;;;;;;;12.70;99.90;;;;;;5114226;28;20024;-77
2022/08/13 05:39:59;;;;;;;0.20;0.20;;;12.90;99.90;;;;;;5114010;28;19910;-77
2022/08/13 05:42:25;;;;;;;0.40;0.40;;;13.10;99.90;;;;;;5113771;28;20111;-78
2022/08/13 05:44:50;;;;;;;1.23;1.13;;;13.20;99.90;;;;;;5095483;28;20023;-77
2022/08/13 05:47:17;;;;;;;0.77;0.73;;;13.30;99.90;;;;;;5113756;28;20024;-77
2022/08/13 05:49:43;;;;;;;3.35;1.02;;;13.40;99.90;;;;;;5095301;28;20483;-77
2022/08/13 05:52:11;;;;;;;0.43;0.43;;;13.60;99.90;;;;;;5113888;28;20028;-77
2022/08/13 05:54:37;;;;;;;0.20;0.20;;;13.70;99.90;;;;;;5113486;28;20404;-76
2022/08/13 05:57:03;;;;;;;0.55;0.55;;;13.80;99.90;;;;;;5113529;28;20020;-77
2022/08/13 06:04:57;;;;;;;2.60;0.73;;;14.40;99.90;;;;;;5113566;28;20027;-76
2022/08/13 06:07:23;;;;;;;0.52;0.52;;;14.60;99.90;;;;;;5094849;28;20020;-77
2022/08/13 06:09:49;;;;;;;0.40;0.40;;;14.70;99.90;;;;;;5113137;28;20031;-76
2022/08/13 06:12:15;;;;;;;0.35;0.35;;;14.90;99.90;;;;;;5113213;28;20027;-76
2022/08/13 06:14:41;;;;;;;0.45;0.45;;;15.10;99.90;;;;;;5113405;28;20043;-78
2022/08/13 06:17:07;;;;;;;1.17;0.82;;;15.20;99.90;;;;;;5097854;28;20395;-79
2022/08/13 06:19:32;;;;;;;0.43;0.32;;;15.40;99.90;;;;;;5117085;28;20020;-77
2022/08/13 06:22:02;;;;;;;0.88;0.43;;;15.50;99.90;;;;;;5116914;28;20055;-76
2022/08/13 06:24:32;;;;;;;0.20;0.20;;;15.80;99.90;;;;;;5116664;28;20023;-77
2022/08/13 06:27:01;;;;;;;0.20;0.20;;;15.90;99.90;;;;;;5116866;28;20034;-78
2022/08/13 06:29:29;;;;;;;0.60;0.60;;;16.30;99.90;;;;;;5098355;28;20020;-77
2022/08/13 06:31:55;;;;;;;0.85;0.85;;;16.40;99.90;;;;;;5098368;28;20048;-78
2022/08/13 06:34:22;;;;;;;0.52;0.52;;;16.60;99.90;;;;;;5116748;28;20544;-78
2022/08/13 06:36:48;;;;;;;0.70;0.70;;;16.80;99.90;;;;;;5116660;28;20023;-78
2022/08/13 06:39:15;;;;;;;0.10;0.10;;;17.00;99.90;;;;;;5098395;28;20420;-78
2022/08/13 06:41:42;;;;;;;0.50;0.50;;;17.00;99.90;;;;;;5116580;28;20059;-78
2022/08/13 06:44:11;;;;;;;0.90;0.30;;;17.20;99.90;;;;;;5116515;28;20069;-78
2022/08/13 06:46:38;;;;;;;3.30;0.70;;;17.40;99.90;;;;;;5116563;28;20108;-77
2022/08/13 06:49:03;;;;;;;0.40;0.40;;;17.50;99.90;;;;;;5116414;28;20384;-75
2022/08/13 06:51:31;;;;;;;3.42;0.88;;;17.60;99.90;;;;;;5116399;28;20032;-77
2022/08/13 06:53:56;;;;;;;0.22;0.22;;;17.70;99.90;;;;;;5116367;28;20060;-76
2022/08/13 06:56:26;;;;;;;0.28;0.28;;;17.90;99.90;;;;;;5116449;28;20034;-76
2022/08/13 06:58:54;;;;;;;0.45;0.45;;;18.00;99.90;;;;;;5116160;28;20024;-77
2022/08/13 07:01:22;;;;;;;0.25;0.25;;;18.00;99.90;;;;;;5115968;28;20027;-78
2022/08/13 07:03:49;;;;;;;0.40;0.40;;;18.10;99.70;;;;;;5115911;28;20027;-75
2022/08/13 07:06:16;;;;;;;1.70;0.50;;;18.50;99.60;;;;;;5116066;28;20059;-74
2022/08/13 07:08:43;;;;;;;0.10;0.10;;;19.90;94.60;;;;;;5097827;28;20030;-75
2022/08/13 07:11:21;;;;;;;0.20;0.20;;;21.50;86.20;;;;;;5097984;28;20045;-76
2022/08/13 07:13:52;;;;;;;0.17;0.17;;;22.60;76.90;;;;;;5116249;28;20042;-75
2022/08/13 07:16:21;;;;;;;0.43;0.43;;;23.30;68.20;;;;;;5098040;28;20504;-75
2022/08/13 07:18:49;;;;;;;0.85;0.85;;;23.30;68.20;;;;;;5097896;28;20432;-76
2022/08/13 07:21:19;;;;;;;0.40;0.40;;;24.10;67.40;;;;;;5115868;28;20020;-76
2022/08/13 07:23:46;;;;;;;0.25;0.20;;;24.60;63.50;;;;;;5097360;28;20036;-76
2022/08/13 07:26:13;;;;;;;0.52;0.25;;;25.10;61.80;;;;;;5115783;28;20012;-78
2022/08/13 07:28:40;;;;;;;1.50;0.40;;;25.10;60.30;;;;;;5096595;28;20040;-77
2022/08/13 07:31:08;;;;;;;0.10;0.10;;;24.30;60.60;;;;;;5115691;28;20383;-76
2022/08/13 07:33:37;;;;;;;0.17;0.17;;;23.80;62.20;;;;;;5097390;28;20471;-76
2022/08/13 07:36:05;;;;;;;0.95;0.70;;;23.40;64.10;;;;;;5115381;28;20027;-77
2022/08/13 07:38:31;;;;;;;0.10;0.10;;;23.70;64.30;;;;;;5115526;28;20030;-77
2022/08/13 07:40:59;;;;;;;0.40;0.40;;;23.50;64.50;;;;;;5115309;28;20024;-77
2022/08/13 07:43:26;;;;;;;0.25;0.25;;;24.10;65.50;;;;;;5115521;28;20030;-77
2022/08/13 07:46:07;;;;;;;0.20;0.20;;;22.60;66.60;;;;;;5115861;28;20031;-75
2022/08/13 07:48:35;;;;;;;0.45;0.45;;;22.10;67.60;;;;;;5097410;28;20026;-76
2022/08/13 07:51:02;;;;;;;1.15;1.10;;;21.80;68.80;;;;;;5097145;28;20062;-76
2022/08/13 07:53:29;;;;;;;0.38;0.38;;;21.60;70.20;;;;;;5115133;28;20118;-76
2022/08/13 07:55:55;;;;;;;0.17;0.17;;;21.50;70.20;;;;;;5115364;28;20104;-76
2022/08/13 07:58:27;;;;;;;0.73;0.20;;;22.30;69.30;;;;;;5096692;28;20023;-76
2022/08/13 08:00:57;;;;;;;0.20;0.20;;;23.80;65.60;;;;;;5096746;28;20107;-77
2022/08/13 08:03:26;;;;;;;0.30;0.30;;;25.10;62.30;;;;;;5114979;28;20016;-77
2022/08/13 08:05:53;;;;;;;0.30;0.30;;;26.30;59.60;;;;;;5114894;28;20019;-78
2022/08/13 08:08:19;;;;;;;0.10;0.10;;;26.80;57.70;;;;;;5114892;28;20027;-79
2022/08/13 08:10:46;;;;;;;0.10;0.10;;;27.10;55.90;;;;;;5096435;28;20487;-76
2022/08/13 08:13:13;;;;;;;0.35;0.35;;;27.00;55.10;;;;;;5096464;28;20023;-76
2022/08/13 08:15:45;;;;;;;0.35;0.35;;;27.40;55.40;;;;;;5114497;28;20426;-78
2022/08/13 08:18:11;;;;;;;0.10;0.10;;;27.00;54.10;;;;;;5096368;28;20110;-75
2022/08/13 08:20:38;;;;;;;0.30;0.30;;;26.20;56.20;;;;;;5115216;28;20027;-75
2022/08/13 08:23:04;;;;;;;0.20;0.20;;;26.00;57.50;;;;;;5114672;28;20023;-78
2022/08/13 08:25:31;;;;;;;0.20;0.20;;;26.80;55.90;;;;;;5096259;28;20027;-79
2022/08/13 08:27:56;;;;;;;0.52;0.52;;;27.60;54.90;;;;;;5114401;28;20024;-75
2022/08/13 08:30:22;;;;;;;0.20;0.20;;;28.60;53.20;;;;;;5096096;28;20035;-74
2022/08/13 08:32:53;;;;;;;0.17;0.17;;;29.00;51.50;;;;;;5097573;28;20426;-75
2022/08/13 08:35:20;;;;;;;0.52;0.52;;;29.20;50.70;;;;;;5096099;28;20112;-76
2022/08/13 08:43:39;;;;;;;0.10;0.10;;;29.80;50.30;;;;;;5079959;28;20035;-74
2022/08/13 08:46:05;;;;;;;0.57;0.20;;;29.10;50.80;;;;;;5113645;28;20032;-75
2022/08/13 08:48:32;;;;;;;0.22;0.22;;;28.20;50.70;;;;;;5114151;28;20016;-76
2022/08/13 08:50:59;;;;;;;0.10;0.10;;;27.90;51.90;;;;;;5095721;28;20035;-75
2022/08/13 08:53:28;;;;;;;0.22;0.22;;;27.60;53.10;;;;;;5095458;28;20467;-76
2022/08/13 08:55:54;;;;;;;0.73;0.67;;;27.80;52.10;;;;;;5095720;28;20217;-75
2022/08/13 08:58:20;;;;;;;0.15;0.15;;;27.40;51.70;;;;;;5095787;28;20072;-75
2022/08/13 09:00:48;;;;;;;0.10;0.10;;;26.60;52.80;;;;;;5095927;28;20020;-75
2022/08/13 09:03:19;;;;;;;0.10;0.10;;;26.00;54.60;;;;;;5114230;28;20020;-75
2022/08/13 09:05:48;;;;;;;0.22;0.22;;;26.00;54.90;;;;;;5095715;28;20023;-75
2022/08/13 09:08:17;;;;;;;0.38;0.38;;;26.70;54.10;;;;;;5113890;28;20440;-75
2022/08/13 09:10:45;;;;;;;0.10;0.10;;;27.30;52.00;;;;;;5095418;28;20405;-75
2022/08/13 09:13:12;;;;;;;0.10;0.10;;;27.00;52.30;;;;;;5095511;28;20030;-75
2022/08/13 09:15:40;;;;;;;0.15;0.13;;;26.60;51.90;;;;;;5095298;28;20055;-75
2022/08/13 09:18:06;;;;;;;1.23;0.20;;;26.20;52.80;;;;;;5113726;28;20026;-74
2022/08/13 09:20:33;;;;;;;0.30;0.30;;;25.80;53.40;;;;;;5095594;28;20434;-76
2022/08/13 09:23:25;;;;;;;0.30;0.17;;;25.60;53.10;;;;;;5095163;28;20535;-75
2022/08/13 09:25:51;;;;;;;0.57;0.57;;;25.90;53.60;;;;;;5109985;28;20043;-74
2022/08/13 09:28:23;;;;;;;0.40;0.40;;;26.20;52.80;;;;;;5113784;28;20317;-76
2022/08/13 09:30:54;;;;;;;0.20;0.20;;;26.20;53.00;;;;;;5113529;28;20027;-76
2022/08/13 09:33:21;;;;;;;0.10;0.10;;;26.40;52.30;;;;;;5113549;28;20095;-76
2022/08/13 09:35:49;;;;;;;0.40;0.13;;;26.60;52.50;;;;;;5113692;28;20416;-76
2022/08/13 09:38:15;;;;;;;0.25;0.25;;;26.90;51.10;;;;;;5113445;28;20012;-75
2022/08/13 09:41:02;;;;;;;0.30;0.25;;;26.90;51.70;;;;;;5113631;28;20016;-76
2022/08/13 09:43:39;;;;;;;0.13;0.13;;;26.50;53.30;;;;;;5113509;28;20070;-77
2022/08/13 09:46:07;;;;;;;0.00;0.00;;;26.00;52.90;;;;;;5113259;28;20533;-77
2022/08/13 09:48:33;;;;;;;0.20;0.20;;;25.80;53.30;;;;;;5113102;28;20026;-76
2022/08/13 09:51:02;;;;;;;0.20;0.10;;;26.20;54.60;;;;;;5096061;28;20031;-77
2022/08/13 09:53:27;;;;;;;0.13;0.13;;;26.10;52.30;;;;;;5117552;28;20395;-76
2022/08/13 09:55:53;;;;;;;0.25;0.20;;;26.10;52.60;;;;;;5117437;28;20030;-77
2022/08/13 09:58:19;;;;;;;3.20;1.15;;;26.20;53.10;;;;;;5099084;28;20024;-76
2022/08/13 10:00:46;;;;;;;0.68;0.20;;;26.00;52.40;;;;;;5117329;28;20103;-76
2022/08/13 10:03:12;;;;;;;0.17;0.17;;;26.00;51.70;;;;;;5117306;28;20024;-76
2022/08/13 10:05:38;;;;;;;0.13;0.13;;;26.20;52.70;;;;;;5117218;28;20020;-76
2022/08/13 10:08:07;;;;;;;0.30;0.30;;;26.60;51.50;;;;;;5117108;28;20023;-75
2022/08/13 10:10:33;;;;;;;0.08;0.08;;;27.00;51.20;;;;;;5117217;28;20071;-78
2022/08/13 10:13:00;;;;;;;3.20;1.15;;;27.30;51.00;;;;;;5098865;28;20059;-76
2022/08/13 10:15:27;;;;;;;2.90;0.95;;;27.50;51.00;;;;;;5098856;28;20077;-76
2022/08/13 10:17:58;;;;;;;0.20;0.20;;;27.20;50.90;;;;;;5098749;28;20020;-75
2022/08/13 10:20:30;;;;;;;0.20;0.20;;;27.20;50.50;;;;;;5117041;28;20024;-77
2022/08/13 10:22:57;;;;;;;0.20;0.20;;;27.30;50.10;;;;;;5098936;28;20110;-78
2022/08/13 10:25:25;;;;;;;0.40;0.40;;;27.40;49.20;;;;;;5098475;28;20080;-75
2022/08/13 10:27:51;;;;;;;0.40;0.30;;;27.60;49.50;;;;;;5116830;28;20468;-77
2022/08/13 10:30:26;;;;;;;0.20;0.20;;;27.90;47.50;;;;;;5116833;28;20404;-77
2022/08/13 10:32:56;;;;;;;0.10;0.10;;;28.00;49.00;;;;;;5116758;28;20043;-76
2022/08/13 10:35:27;;;;;;;0.17;0.17;;;28.10;47.60;;;;;;5116667;28;20042;-78
2022/08/13 10:37:57;;;;;;;0.43;0.43;;;28.30;48.20;;;;;;5098505;28;20031;-76
2022/08/13 10:40:24;;;;;;;0.13;0.10;;;28.40;47.50;;;;;;5116754;28;20028;-77
2022/08/13 10:42:51;;;;;;;1.98;0.45;;;28.50;47.30;;;;;;5116530;28;20027;-78
2022/08/13 10:45:19;;;;;;;0.05;0.05;;;28.90;47.70;;;;;;5116620;28;20024;-76
2022/08/13 10:47:49;;;;;;;0.93;0.50;;;29.00;46.70;;;;;;5116476;28;20015;-76
2022/08/13 10:50:17;;;;;;;0.13;0.13;;;28.90;47.40;;;;;;5116446;28;20030;-78
2022/08/13 10:52:43;;;;;;;0.60;0.60;;;29.10;45.90;;;;;;5116210;28;20062;-75
2022/08/13 10:55:12;;;;;;;0.20;0.20;;;29.20;44.60;;;;;;5116379;28;20080;-75
2022/08/13 10:57:43;;;;;;;0.10;0.10;;;29.10;46.20;;;;;;5116301;28;20024;-77
2022/08/13 11:00:12;;;;;;;0.00;0.00;;;29.00;45.50;;;;;;5116247;28;20028;-75
2022/08/13 11:02:38;;;;;;;1.27;0.30;;;28.80;45.80;;;;;;5115015;28;20026;-76
2022/08/13 11:05:08;;;;;;;0.13;0.13;;;28.70;46.50;;;;;;5116196;28;20023;-76
2022/08/13 11:07:36;;;;;;;0.10;0.10;;;28.80;47.10;;;;;;5116309;28;20031;-77
2022/08/13 11:10:04;;;;;;;0.32;0.30;;;28.50;45.60;;;;;;5097627;28;20055;-76
2022/08/13 11:12:30;;;;;;;0.35;0.30;;;28.40;45.70;;;;;;5097848;28;20028;-76
2022/08/13 11:14:56;;;;;;;0.22;0.22;;;28.70;45.60;;;;;;5115804;28;20085;-78
2022/08/13 11:17:22;;;;;;;1.00;0.35;;;29.60;44.50;;;;;;5115845;28;20027;-76
2022/08/13 11:19:49;;;;;;;0.10;0.10;;;30.00;43.20;;;;;;5115866;28;20012;-75
2022/08/13 11:22:23;;;;;;;0.73;0.10;;;30.00;44.40;;;;;;5098629;28;20028;-76
2022/08/13 11:24:49;;;;;;;0.10;0.10;;;29.80;43.20;;;;;;5115720;28;20440;-75
2022/08/13 11:27:16;;;;;;;0.10;0.10;;;30.20;42.70;;;;;;5115699;28;20024;-75
2022/08/13 11:29:42;;;;;;;0.10;0.10;;;30.70;42.30;;;;;;5115542;28;20023;-76
2022/08/13 11:32:08;;;;;;;0.13;0.13;;;31.10;41.50;;;;;;5115455;28;20094;-76
2022/08/13 11:34:34;;;;;;;0.32;0.32;;;30.80;42.40;;;;;;5115166;28;20499;-76
2022/08/13 11:37:00;;;;;;;0.20;0.20;;;31.20;43.10;;;;;;5115034;28;20126;-78
2022/08/13 11:39:26;;;;;;;0.17;0.17;;;31.50;41.10;;;;;;5116379;28;20051;-77
2022/08/13 11:41:51;;;;;;;0.20;0.20;;;32.00;41.00;;;;;;5098827;28;20020;-75
2022/08/13 11:44:17;;;;;;;19.08;1.55;;;;;;;;;;5096830;28;20050;-76
2022/08/13 11:46:43;;;;;;;4.47;0.95;;;31.90;40.20;;;;;;5096695;28;20028;-76
2022/08/13 11:49:10;;;;;;;0.28;0.28;;;31.20;41.50;;;;;;5115010;28;20093;-75
2022/08/13 11:51:39;;;;;;;0.10;0.10;;;31.70;41.60;;;;;;5096851;28;20039;-76
2022/08/13 11:54:05;;;;;;;;;;;32.00;41.40;;;;;;5115413;28;20071;-77
2022/08/13 11:56:31;;;;;;;0.47;0.45;;;31.20;41.90;;;;;;5115071;28;20367;-74
2022/08/13 11:58:56;;;;;;;0.20;0.20;;;32.00;42.80;;;;;;5114968;28;20024;-75
2022/08/13 12:01:23;;;;;;;0.20;0.20;;;32.60;40.70;;;;;;5115132;28;20019;-75
2022/08/13 12:03:48;;;;;;;0.10;0.10;;;33.20;40.70;;;;;;5114972;28;20027;-75
2022/08/13 12:06:15;;;;;;;0.20;0.20;;;32.80;40.30;;;;;;5097281;28;20027;-76
2022/08/13 12:08:40;;;;;;;0.45;0.20;;;33.40;39.80;;;;;;5114830;28;20035;-76
2022/08/13 12:11:06;;;;;;;0.20;0.13;;;34.60;39.40;;;;;;5114784;28;20379;-75
2022/08/13 12:13:32;;;;;;;0.10;0.10;;;35.40;38.30;;;;;;5114341;28;20022;-75
2022/08/13 12:15:57;;;;;;;0.43;0.43;;;35.20;37.90;;;;;;5114774;28;20380;-75
2022/08/13 12:18:23;;;;;;;0.10;0.10;;;34.80;38.00;;;;;;5114530;28;20069;-77
2022/08/13 12:20:49;;;;;;;0.20;0.20;;;33.70;39.60;;;;;;5114656;28;20430;-77
2022/08/13 12:23:15;;;;;;;0.20;0.20;;;33.80;40.70;;;;;;5096343;28;20028;-75
2022/08/13 12:25:41;;;;;;;0.52;0.30;;;33.80;40.30;;;;;;5114507;28;20126;-75
2022/08/13 12:28:27;;;;;;;0.77;0.45;;;33.40;39.20;;;;;;5114501;28;20411;-74
2022/08/13 12:30:57;;;;;;;0.10;0.10;;;33.60;39.60;;;;;;5096110;28;20387;-75
2022/08/13 12:33:23;;;;;;;0.20;0.20;;;34.50;39.90;;;;;;5096088;28;20019;-75
2022/08/13 12:35:50;;;;;;;0.10;0.10;;;34.60;39.30;;;;;;5114240;28;20047;-75
2022/08/13 12:38:16;;;;;;;0.13;0.13;;;34.70;39.30;;;;;;5114325;28;20024;-77
2022/08/13 12:40:45;;;;;;;0.30;0.30;;;34.00;39.10;;;;;;5114385;28;20031;-75
2022/08/13 12:43:11;;;;;;;0.20;0.20;;;33.90;39.70;;;;;;5113917;28;20027;-76
2022/08/13 12:45:38;;;;;;;0.40;0.40;;;34.80;40.30;;;;;;5114057;28;20028;-76
2022/08/13 12:48:15;;;;;;;0.30;0.20;;;35.50;38.40;;;;;;5114060;28;20028;-76
2022/08/13 12:50:48;;;;;;;0.75;0.10;;;35.40;38.90;;;;;;5114010;28;20106;-76
2022/08/13 12:53:16;;;;;;;0.30;0.30;;;35.30;38.40;;;;;;5113964;28;20035;-76
2022/08/13 12:55:44;;;;;;;0.20;0.20;;;34.00;39.20;;;;;;5113990;28;20070;-76
2022/08/13 12:58:19;;;;;;;0.15;0.15;;;33.40;40.60;;;;;;5095576;28;20019;-79
2022/08/13 13:00:46;;;;;;;1.08;0.10;;;32.70;40.90;;;;;;5114013;28;20016;-78
2022/08/13 13:03:13;;;;;;;0.20;0.20;;;32.20;41.50;;;;;;5095843;28;20024;-76
2022/08/13 13:05:40;;;;;;;0.55;0.17;;;32.80;40.80;;;;;;5113925;28;20494;-77
2022/08/13 13:08:21;;;;;;;0.10;0.10;;;33.10;40.70;;;;;;5114084;28;20028;-76
2022/08/13 13:10:48;;;;;;;0.30;0.25;;;34.10;40.30;;;;;;5113630;28;20038;-76
2022/08/13 13:13:17;;;;;;;0.20;0.20;;;35.30;39.50;;;;;;5113673;28;20022;-76
2022/08/13 13:15:44;;;;;;;1.25;0.20;;;35.40;37.90;;;;;;5113710;28;20088;-75